DBBB/COO METAR and TAF weather

Enter ICAO airport designator
Station Type Date Time Source
DBBB METAR 2019/08/22 02:00 UTC NOAA

DBBB 220200Z 24010KT 9999 SCT011 25/23 Q1012 NOSIG


Station Type Date Time Source
DBBB Decoded METAR 2019/08/22 02:00 UTC NOAA

Station name not available
Aug 21, 2019 - 10:00 PM EDT / 2019.08.22 0200 UTC
Wind: from the WSW (240 degrees) at 12 MPH (10 KT):0
Visibility: greater than 7 mile(s):0
Sky conditions: partly cloudy
Temperature: 77 F (25 C)
Dew Point: 73 F (23 C)
Relative Humidity: 88%
Pressure (altimeter): 29.88 in. Hg (1012 hPa)
ob: DBBB 220200Z 24010KT 9999 SCT011 25/23 Q1012 NOSIG
cycle: 2

Station Type Date Time Source
DBBB TAF 2019/08/21 18:21 UTC NOAA

TAF TAF DBBB 211700Z 2118/2224 24010KT 8000 SCT012 PROB40 2204/2209 BKN010

Example: see airport list